Time;durP1;ratioP1;P1;durP2;ratioP2;P2;SDS_P1;SDS_P2;PMS_P1;PMS_P2;Temp;Humidity;BMP_temperature;BMP_pressure;BME280_temperature;BME280_humidity;BME280_pressure;Samples;Min_cycle;Max_cycle;Signal;HPM_P1;HPM_P2
2021/11/23 00:01:13;;;;;;;14.52;8.73;;;11.10;99.90;;;;;;5029844;28;20053;-71
2021/11/23 00:04:18;;;;;;;14.27;8.63;;;11.10;99.90;;;;;;5039230;28;20045;-71
2021/11/23 00:07:22;;;;;;;15.68;9.30;;;11.10;99.90;;;;;;5025544;28;20491;-72
2021/11/23 00:10:27;;;;;;;16.88;9.25;;;11.20;99.90;;;;;;5027740;28;20041;-71
2021/11/23 00:13:31;;;;;;;15.77;9.43;;;11.20;99.90;;;;;;5025939;28;20125;-71
2021/11/23 00:16:35;;;;;;;12.43;8.30;;;11.10;99.90;;;;;;5040391;28;20400;-71
2021/11/23 00:19:40;;;;;;;9.43;6.65;;;10.80;99.90;;;;;;5029804;28;20047;-71
2021/11/23 00:22:43;;;;;;;14.63;7.85;;;10.90;99.90;;;;;;5027506;28;20052;-71
2021/11/23 00:25:50;;;;;;;10.23;6.78;;;11.00;99.90;;;;;;5028691;28;20056;-71
2021/11/23 00:28:53;;;;;;;10.60;7.03;;;11.00;99.90;;;;;;5029238;28;20036;-71
2021/11/23 00:31:58;;;;;;;12.75;7.25;;;11.10;99.90;;;;;;5035354;28;20048;-71
2021/11/23 00:35:03;;;;;;;13.18;7.28;;;11.10;99.90;;;;;;5031118;28;20053;-71
2021/11/23 00:38:07;;;;;;;10.93;6.38;;;11.10;99.90;;;;;;5030601;28;20040;-71
2021/11/23 00:41:13;;;;;;;9.77;5.88;;;11.20;99.90;;;;;;5030537;28;20048;-71
2021/11/23 00:44:19;;;;;;;3.38;2.17;;;11.20;99.90;;;;;;5028887;28;20049;-71
2021/11/23 00:47:23;;;;;;;5.35;2.97;;;11.40;99.90;;;;;;5027280;28;20044;-70
2021/11/23 00:50:28;;;;;;;7.07;2.50;;;11.60;99.90;;;;;;5030800;28;20048;-69
2021/11/23 00:53:34;;;;;;;2.67;1.77;;;11.80;99.90;;;;;;5025664;28;20073;-69
2021/11/23 00:56:38;;;;;;;5.93;2.80;;;12.10;99.90;;;;;;5027142;28;20495;-70
2021/11/23 00:59:43;;;;;;;3.35;2.28;;;12.30;99.90;;;;;;5029749;28;20053;-69
2021/11/23 01:02:47;;;;;;;3.15;1.73;;;12.50;99.90;;;;;;5029195;28;20048;-71
2021/11/23 01:05:51;;;;;;;5.88;4.10;;;12.50;99.90;;;;;;5030395;28;20048;-71
2021/11/23 01:08:55;;;;;;;7.57;4.70;;;12.60;99.90;;;;;;5039629;28;20523;-71
2021/11/23 01:11:59;;;;;;;6.32;4.07;;;12.30;99.90;;;;;;5029815;28;20037;-71
2021/11/23 01:15:05;;;;;;;3.72;2.13;;;12.00;99.90;;;;;;5030117;28;20470;-70
2021/11/23 01:18:10;;;;;;;5.55;3.45;;;12.20;99.90;;;;;;5030546;28;20052;-71
2021/11/23 01:21:15;;;;;;;5.53;3.03;;;12.40;99.90;;;;;;5023363;28;20612;-71
2021/11/23 01:24:19;;;;;;;7.80;3.25;;;12.40;99.90;;;;;;5022975;28;20058;-72
2021/11/23 01:27:23;;;;;;;4.53;2.58;;;12.30;99.90;;;;;;5028359;28;20053;-71
2021/11/23 01:30:27;;;;;;;3.85;1.73;;;12.30;99.90;;;;;;5028401;28;20040;-70
2021/11/23 01:33:32;;;;;;;1.70;1.30;;;12.40;99.90;;;;;;5024910;28;20049;-72
2021/11/23 01:36:36;;;;;;;4.47;2.42;;;12.50;99.90;;;;;;5025375;28;20048;-71
2021/11/23 01:39:40;;;;;;;4.13;2.60;;;12.50;99.90;;;;;;5026886;28;20040;-70
2021/11/23 01:42:45;;;;;;;4.13;2.42;;;12.40;99.90;;;;;;5027267;28;20400;-70
2021/11/23 01:45:49;;;;;;;4.47;2.63;;;12.30;99.90;;;;;;5029212;28;20518;-71
2021/11/23 01:48:53;;;;;;;3.60;2.10;;;12.30;99.90;;;;;;5028691;28;20483;-69
2021/11/23 01:51:57;;;;;;;4.43;2.47;;;12.20;99.90;;;;;;5026768;28;20056;-71
2021/11/23 01:55:04;;;;;;;3.30;2.30;;;12.10;99.90;;;;;;5029166;28;20052;-70
2021/11/23 01:58:11;;;;;;;5.35;2.88;;;12.00;99.90;;;;;;5028814;28;20045;-70
2021/11/23 02:01:16;;;;;;;3.22;2.05;;;11.90;99.90;;;;;;5025059;28;20052;-69
2021/11/23 02:04:20;;;;;;;3.92;1.88;;;11.90;99.90;;;;;;5023399;28;20052;-71
2021/11/23 02:07:24;;;;;;;2.20;1.40;;;12.10;99.90;;;;;;5029748;28;20048;-68
2021/11/23 02:10:27;;;;;;;1.92;1.23;;;12.20;99.90;;;;;;5023165;28;20045;-70
2021/11/23 02:13:32;;;;;;;1.95;1.02;;;12.60;99.90;;;;;;5028502;28;20033;-71
2021/11/23 02:16:36;;;;;;;4.47;1.85;;;12.70;99.90;;;;;;5025910;28;20052;-71
2021/11/23 02:19:46;;;;;;;1.92;1.20;;;12.70;99.90;;;;;;5024811;28;20040;-71
2021/11/23 02:22:51;;;;;;;2.47;1.10;;;12.70;99.90;;;;;;5026595;28;20081;-70
2021/11/23 02:25:55;;;;;;;2.25;1.48;;;12.80;99.90;;;;;;5027432;28;20495;-69
2021/11/23 02:28:59;;;;;;;7.93;1.95;;;12.70;99.90;;;;;;5028427;28;20064;-69
2021/11/23 02:32:04;;;;;;;2.22;1.27;;;12.70;99.90;;;;;;5028589;28;20048;-70
2021/11/23 02:35:10;;;;;;;2.88;1.27;;;12.60;99.90;;;;;;5024429;28;20041;-68
2021/11/23 02:38:19;;;;;;;2.22;1.40;;;12.60;99.90;;;;;;5024595;28;20037;-69
2021/11/23 02:41:23;;;;;;;3.60;1.88;;;12.60;99.90;;;;;;5022546;28;20041;-71
2021/11/23 02:44:27;;;;;;;1.52;1.10;;;12.60;99.90;;;;;;5023670;28;20045;-71
2021/11/23 02:47:33;;;;;;;1.40;0.70;;;12.70;99.90;;;;;;5028650;28;20033;-70
2021/11/23 02:50:39;;;;;;;2.72;1.65;;;12.70;99.90;;;;;;5028297;28;20041;-70
2021/11/23 02:53:45;;;;;;;2.15;1.25;;;12.60;99.90;;;;;;5025504;28;20048;-68
2021/11/23 02:56:49;;;;;;;2.50;1.20;;;12.60;99.90;;;;;;5026670;28;20056;-69
2021/11/23 02:59:54;;;;;;;1.70;1.02;;;12.60;99.90;;;;;;5025961;28;20499;-71
2021/11/23 03:02:58;;;;;;;2.08;0.98;;;12.60;99.90;;;;;;5030584;28;20511;-69
2021/11/23 03:06:03;;;;;;;0.88;0.70;;;12.60;99.90;;;;;;5032349;28;20503;-70
2021/11/23 03:09:08;;;;;;;3.45;1.02;;;12.60;99.90;;;;;;5030525;28;20384;-70
2021/11/23 03:12:18;;;;;;;9.10;1.10;;;12.50;99.90;;;;;;5024667;28;20038;-70
2021/11/23 03:15:23;;;;;;;4.93;1.05;;;12.50;99.90;;;;;;5026467;28;20044;-69
2021/11/23 03:18:26;;;;;;;2.38;1.35;;;12.40;99.90;;;;;;5030866;28;20060;-70
2021/11/23 03:21:30;;;;;;;2.22;1.15;;;12.30;99.90;;;;;;5026421;28;20072;-70
2021/11/23 03:24:35;;;;;;;1.48;0.90;;;12.40;99.90;;;;;;5028003;28;20048;-69
2021/11/23 03:27:40;;;;;;;1.42;1.00;;;12.30;99.90;;;;;;5028898;28;20396;-70
2021/11/23 03:30:47;;;;;;;2.47;1.13;;;12.30;99.90;;;;;;5028768;28;20036;-69
2021/11/23 03:33:51;;;;;;;5.25;1.30;;;12.20;99.90;;;;;;5032076;28;20040;-69
2021/11/23 03:36:55;;;;;;;1.70;1.15;;;12.20;99.90;;;;;;5031443;28;20148;-70
2021/11/23 03:40:00;;;;;;;2.63;1.27;;;12.10;99.90;;;;;;5031010;28;20052;-69
2021/11/23 03:43:05;;;;;;;2.15;1.10;;;12.10;99.90;;;;;;5031244;28;20052;-69
2021/11/23 03:46:10;;;;;;;2.10;1.10;;;12.10;99.90;;;;;;5031993;28;20056;-70
2021/11/23 03:49:14;;;;;;;3.17;1.52;;;12.00;99.90;;;;;;5029161;28;20037;-70
2021/11/23 03:52:18;;;;;;;3.78;1.50;;;12.00;99.90;;;;;;5031223;28;20041;-70
2021/11/23 03:55:23;;;;;;;2.72;1.60;;;12.00;99.90;;;;;;5025988;28;20069;-68
2021/11/23 03:58:27;;;;;;;2.60;1.30;;;11.90;99.90;;;;;;5031248;28;20061;-69
2021/11/23 04:01:31;;;;;;;2.78;1.92;;;12.00;99.90;;;;;;5026464;28;20053;-69
2021/11/23 04:04:35;;;;;;;3.03;1.33;;;11.90;99.90;;;;;;5030354;28;20049;-68
2021/11/23 04:07:40;;;;;;;3.95;1.73;;;11.90;99.90;;;;;;5030297;28;20036;-69
2021/11/23 04:10:44;;;;;;;5.07;1.98;;;11.80;99.90;;;;;;5027155;28;20040;-71
2021/11/23 04:13:49;;;;;;;4.57;2.30;;;11.80;99.90;;;;;;5027978;28;20043;-71
2021/11/23 04:16:53;;;;;;;4.78;2.72;;;11.80;99.90;;;;;;5030795;28;20040;-69
2021/11/23 04:19:57;;;;;;;4.85;2.13;;;11.80;99.90;;;;;;5030205;28;20519;-71
2021/11/23 04:23:01;;;;;;;6.15;2.40;;;11.90;99.90;;;;;;5031106;28;20052;-69
2021/11/23 04:26:06;;;;;;;4.80;2.55;;;11.90;99.90;;;;;;5030534;28;20045;-69
2021/11/23 04:29:09;;;;;;;4.82;2.75;;;11.90;99.90;;;;;;5030896;28;20048;-70
2021/11/23 04:32:14;;;;;;;4.85;2.88;;;11.90;99.90;;;;;;5029248;28;20041;-69
2021/11/23 04:35:19;;;;;;;5.40;3.10;;;12.00;99.90;;;;;;5026768;28;20048;-70
2021/11/23 04:38:23;;;;;;;4.82;2.83;;;12.10;99.90;;;;;;5024140;28;20060;-70
2021/11/23 04:41:27;;;;;;;6.13;2.75;;;12.10;99.90;;;;;;5025241;28;20044;-69
2021/11/23 04:44:31;;;;;;;8.57;2.92;;;11.90;99.90;;;;;;5026146;28;20043;-68
2021/11/23 04:47:36;;;;;;;6.65;3.00;;;11.90;99.90;;;;;;5029922;28;20530;-68
2021/11/23 04:50:40;;;;;;;3.85;2.42;;;11.90;99.90;;;;;;5026728;28;20040;-71
2021/11/23 04:53:44;;;;;;;7.90;2.80;;;11.90;99.90;;;;;;5027422;28;20036;-69
2021/11/23 04:56:48;;;;;;;6.07;3.22;;;11.80;99.90;;;;;;5027938;28;20044;-70
2021/11/23 04:59:52;;;;;;;5.47;3.00;;;11.80;99.90;;;;;;5027609;28;20056;-70
2021/11/23 05:02:58;;;;;;;6.82;3.20;;;11.70;99.90;;;;;;5030392;28;20850;-69
2021/11/23 05:06:02;;;;;;;5.25;2.90;;;11.70;99.90;;;;;;5040585;28;20069;-70
2021/11/23 05:09:05;;;;;;;7.50;2.83;;;11.70;99.90;;;;;;5029482;28;20490;-69
2021/11/23 05:12:09;;;;;;;6.10;3.28;;;11.70;99.90;;;;;;5022404;28;20032;-68
2021/11/23 05:15:13;;;;;;;4.63;2.75;;;11.70;99.90;;;;;;5029960;28;20060;-71
2021/11/23 05:18:17;;;;;;;7.50;3.35;;;11.70;99.90;;;;;;5025207;28;20045;-69
2021/11/23 05:21:21;;;;;;;7.40;2.97;;;11.70;99.90;;;;;;5024172;28;20258;-70
2021/11/23 05:24:25;;;;;;;7.22;3.03;;;11.60;99.90;;;;;;5028901;28;20040;-69
2021/11/23 05:27:29;;;;;;;5.65;3.65;;;11.60;99.90;;;;;;5024727;28;20052;-68
2021/11/23 05:30:33;;;;;;;5.55;2.45;;;11.60;99.90;;;;;;5028082;28;20033;-69
2021/11/23 05:33:37;;;;;;;6.15;2.90;;;11.60;99.90;;;;;;5026276;28;20487;-69
2021/11/23 05:36:41;;;;;;;6.03;2.78;;;11.60;99.90;;;;;;5026016;28;20399;-70
2021/11/23 05:39:45;;;;;;;5.20;2.33;;;11.60;99.90;;;;;;5025804;28;20060;-69
2021/11/23 05:42:49;;;;;;;8.95;3.05;;;11.60;99.90;;;;;;5027793;28;20056;-71
2021/11/23 05:45:53;;;;;;;4.75;2.20;;;11.60;99.90;;;;;;5029210;28;20067;-69
2021/11/23 05:48:57;;;;;;;5.50;2.60;;;11.60;99.90;;;;;;5029757;28;20052;-69
2021/11/23 05:52:01;;;;;;;5.97;2.30;;;11.70;99.90;;;;;;5037119;28;20092;-70
2021/11/23 05:55:06;;;;;;;3.28;2.25;;;11.70;99.90;;;;;;5027791;28;20032;-69
2021/11/23 05:58:10;;;;;;;6.03;2.50;;;11.70;99.90;;;;;;5029170;28;20036;-69
2021/11/23 06:01:15;;;;;;;7.90;3.22;;;11.70;99.90;;;;;;5029292;28;20207;-70
2021/11/23 06:04:19;;;;;;;6.07;3.22;;;11.70;99.90;;;;;;5029539;28;20491;-69
2021/11/23 06:07:23;;;;;;;6.28;2.92;;;11.60;99.90;;;;;;5023302;28;20068;-70
2021/11/23 06:10:27;;;;;;;6.60;2.75;;;11.60;99.90;;;;;;5029586;28;20049;-69
2021/11/23 06:13:31;;;;;;;5.50;2.80;;;11.60;99.90;;;;;;5027267;28;20040;-69
2021/11/23 06:16:37;;;;;;;5.57;2.88;;;11.60;99.90;;;;;;5027791;28;20052;-71
2021/11/23 06:19:41;;;;;;;7.22;2.78;;;11.60;99.90;;;;;;5026627;28;20589;-70
2021/11/23 06:22:45;;;;;;;5.05;2.55;;;11.50;99.90;;;;;;5029585;28;20404;-68
2021/11/23 06:25:54;;;;;;;4.03;2.28;;;11.60;99.90;;;;;;5026068;28;20048;-69
2021/11/23 06:28:59;;;;;;;6.18;2.58;;;11.60;99.90;;;;;;5028432;28;20053;-69
2021/11/23 06:32:04;;;;;;;6.15;2.67;;;11.70;99.90;;;;;;5028516;28;20048;-69
2021/11/23 06:35:09;;;;;;;4.00;2.25;;;11.60;99.90;;;;;;5024649;28;20041;-69
2021/11/23 06:38:13;;;;;;;3.83;2.30;;;11.70;99.90;;;;;;5024080;28;20040;-69
2021/11/23 06:41:19;;;;;;;8.02;2.30;;;11.80;99.90;;;;;;5026772;28;20044;-69
2021/11/23 06:44:23;;;;;;;6.18;2.38;;;11.60;99.90;;;;;;5031008;28;20092;-70
2021/11/23 06:47:27;;;;;;;4.95;2.42;;;11.60;99.90;;;;;;5029250;28;20037;-68
2021/11/23 06:50:33;;;;;;;3.80;2.45;;;11.70;99.90;;;;;;5028240;28;20502;-70
2021/11/23 06:53:37;;;;;;;4.53;2.42;;;11.70;99.90;;;;;;5028379;28;20483;-70
2021/11/23 06:56:41;;;;;;;4.80;2.30;;;11.80;99.90;;;;;;5028557;28;20037;-69
2021/11/23 06:59:47;;;;;;;4.80;2.28;;;11.70;99.90;;;;;;5029958;28;20407;-69
2021/11/23 07:02:51;;;;;;;5.47;2.00;;;11.80;99.90;;;;;;5030885;28;20076;-68
2021/11/23 07:05:55;;;;;;;7.20;3.40;;;11.70;99.90;;;;;;5030872;28;20064;-68
2021/11/23 07:08:59;;;;;;;7.03;3.50;;;11.70;99.90;;;;;;5031168;28;20049;-69
2021/11/23 07:12:04;;;;;;;9.55;4.13;;;11.70;99.90;;;;;;5025127;28;20048;-69
2021/11/23 07:15:10;;;;;;;5.10;2.55;;;11.80;99.90;;;;;;5034554;28;20033;-69
2021/11/23 07:18:14;;;;;;;6.80;3.28;;;11.80;99.90;;;;;;5030542;28;20044;-69
2021/11/23 07:21:18;;;;;;;11.43;2.72;;;11.90;99.90;;;;;;5030743;28;20044;-70
2021/11/23 07:24:23;;;;;;;6.22;2.30;;;11.90;99.90;;;;;;5030620;28;20454;-70
2021/11/23 07:27:28;;;;;;;6.45;2.72;;;12.00;99.90;;;;;;5031616;28;20060;-69
2021/11/23 07:30:32;;;;;;;4.10;1.67;;;12.10;99.90;;;;;;5031340;28;20048;-68
2021/11/23 07:33:36;;;;;;;4.57;2.75;;;12.20;99.90;;;;;;5031336;28;20057;-70
2021/11/23 07:36:40;;;;;;;6.20;2.40;;;12.20;99.90;;;;;;5027285;28;20064;-70
2021/11/23 07:39:46;;;;;;;6.03;2.35;;;12.10;99.90;;;;;;5033075;28;20072;-69
2021/11/23 07:42:50;;;;;;;4.28;2.50;;;12.10;99.90;;;;;;5027067;28;20061;-70
2021/11/23 07:45:55;;;;;;;6.32;2.72;;;12.20;99.90;;;;;;5031128;28;20044;-70
2021/11/23 07:48:59;;;;;;;4.85;2.10;;;12.30;99.90;;;;;;5030676;28;20036;-71
2021/11/23 07:52:03;;;;;;;5.68;2.13;;;12.10;99.90;;;;;;5022140;28;20044;-69
2021/11/23 07:55:08;;;;;;;7.25;2.20;;;12.00;99.90;;;;;;5029092;28;20040;-69
2021/11/23 07:58:12;;;;;;;5.22;1.75;;;12.10;99.90;;;;;;5027521;28;20395;-69
2021/11/23 08:01:16;;;;;;;7.53;2.40;;;12.20;99.90;;;;;;5029096;28;20045;-70
2021/11/23 08:04:20;;;;;;;6.05;2.25;;;12.30;99.90;;;;;;5030072;28;20040;-70
2021/11/23 08:07:27;;;;;;;4.25;2.53;;;12.40;99.90;;;;;;5026838;28;20037;-68
2021/11/23 08:10:31;;;;;;;7.18;3.58;;;12.40;99.90;;;;;;5031128;28;20060;-69
2021/11/23 08:13:35;;;;;;;10.98;7.40;;;12.40;99.90;;;;;;5022066;28;20033;-69
2021/11/23 08:16:40;;;;;;;5.00;2.35;;;12.40;99.90;;;;;;5028536;28;20404;-70
2021/11/23 08:19:44;;;;;;;6.80;2.65;;;12.50;99.90;;;;;;5029956;28;20045;-68
2021/11/23 08:22:51;;;;;;;6.03;3.28;;;12.60;99.90;;;;;;5029347;28;20112;-70
2021/11/23 08:25:56;;;;;;;5.10;2.08;;;12.70;99.90;;;;;;5027060;28;20048;-70
2021/11/23 08:29:01;;;;;;;3.70;1.75;;;12.80;99.90;;;;;;5029136;28;20037;-68
2021/11/23 08:32:05;;;;;;;4.10;2.17;;;13.00;99.90;;;;;;5027746;28;20046;-68
2021/11/23 08:35:09;;;;;;;4.57;2.10;;;13.20;99.90;;;;;;5028133;28;21230;-71
2021/11/23 08:38:13;;;;;;;3.47;2.05;;;13.20;99.90;;;;;;5030723;28;20049;-70
2021/11/23 08:41:17;;;;;;;5.25;1.80;;;13.30;99.90;;;;;;5028216;28;20033;-69
2021/11/23 08:44:22;;;;;;;3.92;1.85;;;13.50;99.90;;;;;;5035087;28;20495;-68
2021/11/23 08:47:27;;;;;;;6.65;2.53;;;13.80;99.90;;;;;;5025168;28;20072;-70
2021/11/23 08:50:31;;;;;;;32.03;18.92;;;14.10;99.90;;;;;;5029223;28;20049;-69
2021/11/23 08:53:36;;;;;;;3.22;1.67;;;14.10;99.90;;;;;;5029618;28;20048;-71
2021/11/23 08:56:46;;;;;;;8.32;2.28;;;14.50;99.90;;;;;;5028948;28;20044;-69
2021/11/23 08:59:52;;;;;;;5.35;2.60;;;14.90;99.90;;;;;;5029561;28;20049;-70
2021/11/23 09:02:58;;;;;;;5.10;2.10;;;16.90;99.90;;;;;;5029105;28;20040;-69
2021/11/23 09:06:02;;;;;;;7.90;3.95;;;19.90;99.90;;;;;;5026913;28;20040;-71
2021/11/23 09:09:09;;;;;;;3.58;2.25;;;21.00;98.20;;;;;;5010713;28;20053;-72
2021/11/23 09:12:14;;;;;;;4.78;1.80;;;20.90;97.70;;;;;;5027148;28;20674;-71
2021/11/23 09:15:19;;;;;;;3.17;1.65;;;22.70;95.80;;;;;;5029514;28;20036;-71
2021/11/23 09:18:23;;;;;;;5.22;1.90;;;23.90;94.20;;;;;;5030243;28;20048;-70
2021/11/23 09:21:28;;;;;;;3.25;1.63;;;23.90;92.50;;;;;;5025887;28;20396;-70
2021/11/23 09:24:33;;;;;;;5.28;1.60;;;24.10;91.30;;;;;;5023740;28;20048;-69
2021/11/23 09:27:38;;;;;;;3.88;1.48;;;21.50;93.50;;;;;;5028555;28;20483;-71
2021/11/23 09:30:42;;;;;;;3.80;1.60;;;20.30;94.20;;;;;;5024936;28;20037;-69
2021/11/23 09:33:48;;;;;;;3.15;2.00;;;18.60;95.70;;;;;;5028817;28;20048;-71
2021/11/23 09:36:54;;;;;;;3.55;1.48;;;18.90;96.30;;;;;;5029987;28;20036;-69
2021/11/23 09:39:58;;;;;;;6.13;1.80;;;19.30;95.90;;;;;;5026816;28;20064;-70
2021/11/23 09:43:04;;;;;;;2.45;1.60;;;21.10;93.90;;;;;;5029041;28;20261;-69
2021/11/23 09:46:10;;;;;;;7.35;3.58;;;20.90;93.80;;;;;;5028942;28;20064;-70
2021/11/23 09:49:14;;;;;;;5.38;2.50;;;20.70;94.60;;;;;;5042515;28;20045;-69
2021/11/23 09:52:19;;;;;;;3.55;1.67;;;20.60;94.20;;;;;;5026925;28;20037;-71
2021/11/23 09:55:23;;;;;;;3.53;2.03;;;20.40;94.70;;;;;;5020843;28;20045;-71
2021/11/23 09:58:28;;;;;;;7.45;1.70;;;21.40;94.00;;;;;;5027418;28;20433;-70
2021/11/23 10:01:46;;;;;;;4.68;2.00;;;20.60;93.70;;;;;;5026627;28;20045;-69
2021/11/23 10:05:04;;;;;;;7.20;2.55;;;19.00;95.40;;;;;;5026339;28;20506;-69
2021/11/23 10:08:11;;;;;;;9.00;5.13;;;19.20;95.90;;;;;;5027677;28;20048;-70
2021/11/23 10:11:31;;;;;;;15.77;9.10;;;19.00;95.80;;;;;;5028387;28;20036;-71
2021/11/23 10:14:36;;;;;;;2.92;1.77;;;18.60;96.20;;;;;;5027273;28;20043;-70
2021/11/23 10:17:43;;;;;;;2.47;1.50;;;19.70;95.60;;;;;;5033452;28;20388;-70
2021/11/23 10:20:54;;;;;;;6.00;2.50;;;21.40;93.30;;;;;;5033530;28;20403;-70
2021/11/23 10:23:59;;;;;;;5.82;2.45;;;22.10;93.10;;;;;;5033374;28;20048;-70
2021/11/23 10:27:17;;;;;;;5.22;2.42;;;21.80;92.40;;;;;;5031865;28;20053;-71
2021/11/23 10:30:21;;;;;;;1.83;1.20;;;21.20;93.60;;;;;;5026288;28;20036;-71
2021/11/23 10:33:26;;;;;;;3.25;1.42;;;20.60;93.50;;;;;;5031315;28;20041;-70
2021/11/23 10:36:33;;;;;;;3.38;1.40;;;20.70;94.00;;;;;;5043788;28;20052;-69
2021/11/23 10:39:37;;;;;;;3.90;1.98;;;20.60;94.00;;;;;;5032791;28;20040;-70
2021/11/23 10:42:48;;;;;;;4.50;1.80;;;20.10;93.80;;;;;;5024378;28;20048;-69
2021/11/23 10:45:55;;;;;;;2.38;1.40;;;20.20;94.00;;;;;;5027908;28;20518;-69
2021/11/23 10:49:02;;;;;;;3.90;1.45;;;20.10;94.00;;;;;;5031098;28;20056;-69
2021/11/23 10:52:26;;;;;;;3.15;1.38;;;20.70;93.60;;;;;;5031493;28;20037;-69
2021/11/23 10:55:35;;;;;;;2.83;1.30;;;21.50;92.80;;;;;;5028980;28;20507;-70
2021/11/23 10:58:41;;;;;;;2.90;1.40;;;21.90;92.30;;;;;;5032236;28;20049;-70
2021/11/23 11:01:46;;;;;;;2.78;1.27;;;22.30;92.10;;;;;;5035287;28;20032;-70
2021/11/23 11:04:52;;;;;;;4.28;1.67;;;21.60;91.50;;;;;;5032956;28;20048;-69
2021/11/23 11:07:57;;;;;;;2.25;1.40;;;20.60;92.70;;;;;;5025328;28;20045;-69
2021/11/23 11:11:03;;;;;;;4.13;1.50;;;21.40;92.50;;;;;;5033650;28;20503;-70
2021/11/23 11:14:11;;;;;;;2.70;1.40;;;22.00;91.90;;;;;;5023607;28;20095;-70
2021/11/23 11:17:16;;;;;;;2.50;1.40;;;22.40;91.70;;;;;;5032176;28;20087;-70
2021/11/23 11:20:39;;;;;;;3.25;1.20;;;23.10;91.00;;;;;;5032660;28;20052;-69
2021/11/23 11:23:45;;;;;;;1.70;1.30;;;23.10;90.70;;;;;;5016299;28;20064;-70
2021/11/23 11:26:54;;;;;;;3.97;1.83;;;23.80;90.50;;;;;;5032711;28;20052;-69
2021/11/23 11:30:37;;;;;;;3.47;1.33;;;24.50;89.10;;;;;;5032694;28;20037;-69
2021/11/23 11:33:41;;;;;;;8.43;1.77;;;22.90;89.90;;;;;;5006015;28;20053;-70
2021/11/23 11:36:46;;;;;;;4.85;1.40;;;21.60;91.50;;;;;;5017707;28;20056;-70
2021/11/23 11:40:01;;;;;;;3.97;1.52;;;20.90;92.10;;;;;;5028867;28;20036;-69
2021/11/23 11:43:10;;;;;;;4.50;2.22;;;21.90;91.30;;;;;;5032527;28;20056;-70
2021/11/23 11:46:31;;;;;;;4.00;2.10;;;23.50;90.40;;;;;;5046890;28;20052;-71
2021/11/23 11:49:48;;;;;;;5.13;1.92;;;23.50;89.40;;;;;;5030991;28;20044;-71
2021/11/23 11:53:00;;;;;;;4.80;1.50;;;22.50;90.40;;;;;;5031706;28;20041;-69
2021/11/23 11:56:05;;;;;;;4.60;2.35;;;21.00;91.50;;;;;;5032711;28;20053;-70
2021/11/23 11:59:19;;;;;;;4.43;2.17;;;19.80;92.80;;;;;;5029924;28;20041;-70
2021/11/23 12:02:25;;;;;;;6.13;2.28;;;18.60;93.80;;;;;;5032202;28;20388;-68
2021/11/23 12:05:50;;;;;;;9.30;2.55;;;17.90;94.70;;;;;;5031943;28;20400;-71
2021/11/23 12:09:27;;;;;;;3.58;2.00;;;17.50;95.60;;;;;;5012851;28;20056;-69
2021/11/23 12:12:43;;;;;;;6.07;2.38;;;18.60;94.80;;;;;;5029320;28;20033;-69
2021/11/23 12:16:04;;;;;;;5.50;2.30;;;18.80;94.10;;;;;;5026916;28;20049;-70
2021/11/23 12:19:24;;;;;;;5.50;2.43;;;18.80;94.50;;;;;;5028107;28;20043;-70
2021/11/23 12:22:39;;;;;;;5.13;3.00;;;19.50;93.00;;;;;;5020762;28;20041;-69
2021/11/23 12:26:01;;;;;;;4.55;2.70;;;18.50;93.80;;;;;;5012714;28;20057;-71
2021/11/23 12:29:11;;;;;;;11.43;6.13;;;17.80;94.90;;;;;;5026597;28;20039;-69
2021/11/23 12:32:17;;;;;;;7.25;3.42;;;16.60;96.10;;;;;;5028029;28;20040;-71
2021/11/23 12:35:21;;;;;;;14.57;6.78;;;16.30;96.80;;;;;;5031180;28;20041;-69
2021/11/23 12:38:30;;;;;;;8.95;4.18;;;15.90;97.30;;;;;;5028476;28;20036;-69
2021/11/23 12:41:36;;;;;;;9.30;4.45;;;15.80;97.90;;;;;;5029099;28;20534;-69
2021/11/23 12:44:43;;;;;;;7.28;3.58;;;15.80;98.20;;;;;;5031135;28;20044;-69
2021/11/23 12:47:49;;;;;;;13.07;4.60;;;16.00;97.90;;;;;;5027958;28;20507;-69
2021/11/23 12:50:55;;;;;;;16.08;3.17;;;16.00;97.90;;;;;;5029884;28;20052;-70
2021/11/23 12:54:05;;;;;;;7.10;3.00;;;15.30;98.00;;;;;;5030676;28;20036;-70
2021/11/23 12:57:18;;;;;;;9.52;3.83;;;14.90;99.20;;;;;;5022751;28;20044;-69
2021/11/23 13:00:22;;;;;;;7.20;3.60;;;14.60;99.20;;;;;;5029293;28;20044;-70
2021/11/23 13:03:27;;;;;;;10.05;5.53;;;14.80;99.70;;;;;;5030544;28;20127;-70
2021/11/23 13:06:31;;;;;;;11.07;4.00;;;14.60;99.70;;;;;;5016846;28;20499;-69
2021/11/23 13:10:04;;;;;;;5.20;3.25;;;14.50;99.90;;;;;;5028346;28;20040;-69
2021/11/23 13:13:14;;;;;;;12.18;5.15;;;14.20;99.90;;;;;;5027632;28;20049;-69
2021/11/23 13:16:18;;;;;;;12.45;4.47;;;13.90;99.90;;;;;;5028853;28;20412;-70
2021/11/23 13:19:22;;;;;;;6.57;2.90;;;13.70;99.90;;;;;;5028293;28;20052;-70
2021/11/23 13:22:26;;;;;;;6.57;2.78;;;13.70;99.90;;;;;;5031730;28;20037;-70
2021/11/23 13:25:32;;;;;;;13.38;5.05;;;13.50;99.90;;;;;;5030948;28;20053;-70
2021/11/23 13:28:41;;;;;;;9.73;4.97;;;13.50;99.90;;;;;;5027526;28;20499;-70
2021/11/23 13:31:47;;;;;;;14.32;5.43;;;13.60;99.90;;;;;;5031543;28;20589;-69
2021/11/23 13:35:13;;;;;;;9.85;4.38;;;13.60;99.90;;;;;;5024647;28;20044;-69
2021/11/23 13:38:34;;;;;;;11.73;5.10;;;13.80;99.90;;;;;;5028007;28;20392;-68
2021/11/23 13:41:39;;;;;;;8.75;3.83;;;13.60;99.90;;;;;;5028439;28;20412;-70
2021/11/23 13:44:44;;;;;;;7.57;3.97;;;13.60;99.90;;;;;;5029230;28;20044;-69
2021/11/23 13:47:49;;;;;;;5.55;3.30;;;13.60;99.90;;;;;;5026934;28;20048;-68
2021/11/23 13:51:00;;;;;;;9.70;3.70;;;14.40;99.90;;;;;;5017115;28;20056;-69
2021/11/23 13:54:07;;;;;;;6.97;4.05;;;15.00;99.90;;;;;;5026622;28;20052;-69
2021/11/23 13:57:23;;;;;;;6.75;3.90;;;15.20;99.90;;;;;;5029659;28;20061;-72
2021/11/23 14:00:29;;;;;;;10.90;4.70;;;14.40;99.90;;;;;;5026852;28;20037;-69
2021/11/23 14:03:33;;;;;;;12.07;6.10;;;13.90;99.90;;;;;;5027665;28;20048;-69
2021/11/23 14:07:08;;;;;;;10.63;4.65;;;13.80;99.90;;;;;;5028364;28;20048;-69
2021/11/23 14:10:23;;;;;;;6.00;3.42;;;13.70;99.90;;;;;;5032389;28;20044;-72
2021/11/23 14:13:31;;;;;;;8.13;4.00;;;13.80;99.90;;;;;;5028359;28;20037;-71
2021/11/23 14:16:52;;;;;;;7.40;2.90;;;13.60;99.90;;;;;;5026141;28;20050;-69
2021/11/23 14:20:07;;;;;;;5.65;3.20;;;13.40;99.90;;;;;;5027686;28;20044;-68
2021/11/23 14:23:32;;;;;;;9.27;4.07;;;13.00;99.90;;;;;;5029210;28;20383;-70
2021/11/23 14:26:37;;;;;;;12.13;4.38;;;12.80;99.90;;;;;;5028631;28;20044;-69
2021/11/23 14:29:41;;;;;;;4.82;3.03;;;12.80;99.90;;;;;;5023035;28;20040;-69
2021/11/23 14:32:45;;;;;;;4.45;3.20;;;12.70;99.90;;;;;;5030368;28;20049;-69
2021/11/23 14:35:54;;;;;;;5.22;2.92;;;12.80;99.90;;;;;;5028875;28;20037;-69
2021/11/23 14:39:00;;;;;;;7.78;3.28;;;13.00;99.90;;;;;;5014230;28;20395;-68
2021/11/23 14:42:05;;;;;;;4.88;3.10;;;12.90;99.90;;;;;;5030813;28;20053;-68
2021/11/23 14:45:11;;;;;;;8.20;3.17;;;12.70;99.90;;;;;;5027485;28;20503;-69
2021/11/23 14:48:15;;;;;;;9.13;3.67;;;12.50;99.90;;;;;;5028317;28;20041;-69
2021/11/23 14:51:20;;;;;;;6.90;3.22;;;12.60;99.90;;;;;;5029603;28;20045;-69
2021/11/23 14:54:25;;;;;;;5.20;3.15;;;12.80;99.90;;;;;;5026314;28;20060;-70
2021/11/23 14:57:29;;;;;;;10.05;2.95;;;13.20;99.90;;;;;;5029584;28;20060;-69
2021/11/23 15:00:36;;;;;;;12.57;3.45;;;13.40;99.90;;;;;;5033331;28;20045;-69
2021/11/23 15:03:40;;;;;;;6.40;3.45;;;13.50;99.90;;;;;;5029450;28;20060;-68
2021/11/23 15:06:44;;;;;;;9.07;2.92;;;13.70;99.90;;;;;;5031818;28;20048;-70
2021/11/23 15:09:48;;;;;;;4.53;2.97;;;13.80;99.90;;;;;;5032708;28;20045;-71
2021/11/23 15:12:54;;;;;;;12.23;3.70;;;13.70;99.90;;;;;;5033308;28;20049;-69
2021/11/23 15:15:59;;;;;;;7.18;3.88;;;13.30;99.90;;;;;;5032099;28;20107;-69
2021/11/23 15:19:05;;;;;;;7.97;4.57;;;13.00;99.90;;;;;;5032008;28;20049;-70
2021/11/23 15:22:09;;;;;;;5.30;3.13;;;12.90;99.90;;;;;;5033509;28;20068;-69
2021/11/23 15:25:18;;;;;;;8.13;4.15;;;12.70;99.90;;;;;;5024240;28;20044;-68
2021/11/23 15:28:22;;;;;;;9.20;4.45;;;12.40;99.90;;;;;;5028936;28;20415;-70
2021/11/23 15:31:28;;;;;;;9.98;3.83;;;12.10;99.90;;;;;;5027222;28;20052;-68
2021/11/23 15:34:34;;;;;;;9.07;3.45;;;11.80;99.90;;;;;;5033136;28;20048;-71
2021/11/23 15:37:40;;;;;;;14.57;5.30;;;11.60;99.90;;;;;;5032461;28;20045;-69
2021/11/23 15:40:44;;;;;;;9.00;4.22;;;11.40;99.90;;;;;;5025186;28;20057;-69
2021/11/23 15:43:48;;;;;;;11.48;4.65;;;11.40;99.90;;;;;;5032988;28;20060;-70
2021/11/23 15:46:52;;;;;;;9.52;3.35;;;11.30;99.90;;;;;;5032140;28;20048;-69
2021/11/23 15:49:57;;;;;;;5.65;2.97;;;11.40;99.90;;;;;;5031430;28;20189;-72
2021/11/23 15:53:03;;;;;;;7.20;3.92;;;11.30;99.90;;;;;;5033393;28;20044;-69
2021/11/23 15:56:09;;;;;;;7.35;4.50;;;11.30;99.90;;;;;;5032267;28;20499;-69
2021/11/23 15:59:14;;;;;;;9.65;4.43;;;11.10;99.90;;;;;;5031590;28;20388;-69
2021/11/23 16:02:19;;;;;;;11.23;4.78;;;11.10;99.90;;;;;;5032756;28;20049;-70
2021/11/23 16:05:23;;;;;;;8.77;4.28;;;11.00;99.90;;;;;;5013539;28;20045;-69
2021/11/23 16:08:29;;;;;;;6.80;3.60;;;11.00;99.90;;;;;;5027143;28;20053;-69